Time;durP1;ratioP1;P1;durP2;ratioP2;P2;SDS_P1;SDS_P2;PMS_P1;PMS_P2;Temp;Humidity;BMP_temperature;BMP_pressure;BME280_temperature;BME280_humidity;BME280_pressure;Samples;Min_cycle;Max_cycle;Signal;HPM_P1;HPM_P2
2020/12/09 00:00:07;;;;;;;43.15;26.90;;;6.10;85.00;;;;;;5115619;27;20122;-78
2020/12/09 00:02:34;;;;;;;42.50;29.63;;;6.10;84.90;;;;;;5136669;27;20019;-81
2020/12/09 00:05:00;;;;;;;41.53;27.67;;;6.00;84.70;;;;;;5116024;27;20023;-81
2020/12/09 00:07:26;;;;;;;41.00;28.63;;;6.00;84.50;;;;;;5131539;27;20059;-81
2020/12/09 00:09:51;;;;;;;45.20;29.43;;;5.90;84.30;;;;;;5099029;27;20077;-81
2020/12/09 00:12:17;;;;;;;48.30;29.47;;;5.90;84.50;;;;;;5094114;28;20028;-81
2020/12/09 00:14:42;;;;;;;49.93;32.73;;;5.90;84.50;;;;;;5096339;28;20067;-81
2020/12/09 00:17:09;;;;;;;44.53;29.27;;;5.90;84.80;;;;;;5098590;27;20049;-79
2020/12/09 00:19:34;;;;;;;45.73;29.80;;;5.90;84.70;;;;;;5105770;27;20062;-81
2020/12/09 00:22:00;;;;;;;46.40;30.33;;;5.90;84.40;;;;;;5095122;28;20051;-81
2020/12/09 00:24:25;;;;;;;43.90;28.83;;;5.90;84.60;;;;;;5112134;28;20024;-82
2020/12/09 00:26:51;;;;;;;45.60;29.40;;;5.90;84.50;;;;;;5090743;27;20035;-81
2020/12/09 00:29:17;;;;;;;46.97;31.43;;;5.80;84.00;;;;;;5132390;27;20072;-81
2020/12/09 00:31:42;;;;;;;48.63;29.40;;;5.80;84.00;;;;;;5099502;27;20027;-81
2020/12/09 00:34:08;;;;;;;48.83;31.10;;;5.70;84.00;;;;;;5114013;27;20034;-78
2020/12/09 00:36:34;;;;;;;44.67;28.77;;;5.70;84.00;;;;;;5115632;27;20075;-80
2020/12/09 00:38:59;;;;;;;48.13;31.40;;;5.70;84.10;;;;;;5097812;27;20081;-80
2020/12/09 00:41:27;;;;;;;48.93;32.23;;;5.60;83.90;;;;;;5114812;27;20023;-82
2020/12/09 00:43:54;;;;;;;46.53;30.50;;;5.60;83.80;;;;;;5112377;27;20066;-80
2020/12/09 00:46:26;;;;;;;48.37;31.33;;;5.60;83.90;;;;;;5113984;27;20026;-80
2020/12/09 00:48:53;;;;;;;46.90;31.35;;;5.60;84.10;;;;;;5114384;27;20360;-80
2020/12/09 00:51:21;;;;;;;47.63;31.30;;;5.60;84.00;;;;;;5092827;28;20024;-79
2020/12/09 00:53:48;;;;;;;44.63;29.80;;;5.50;83.70;;;;;;5094879;28;20028;-80
2020/12/09 00:56:14;;;;;;;45.70;30.23;;;5.50;83.50;;;;;;5124797;27;20130;-79
2020/12/09 00:58:39;;;;;;;44.97;30.43;;;5.50;83.50;;;;;;5114400;27;20065;-79
2020/12/09 01:01:07;;;;;;;45.83;29.33;;;5.40;83.50;;;;;;5110989;28;20051;-79
2020/12/09 01:03:33;;;;;;;46.47;30.27;;;5.50;83.50;;;;;;5108576;28;20027;-80
2020/12/09 01:05:59;;;;;;;49.37;32.43;;;5.50;83.50;;;;;;5091578;28;20093;-79
2020/12/09 01:08:25;;;;;;;50.10;32.27;;;5.40;83.30;;;;;;5104681;28;20084;-79
2020/12/09 01:10:51;;;;;;;48.73;31.57;;;5.40;83.10;;;;;;5110165;28;20555;-80
2020/12/09 01:13:17;;;;;;;52.00;32.60;;;5.40;83.10;;;;;;5110865;28;20063;-79
2020/12/09 01:15:44;;;;;;;48.63;32.30;;;5.40;82.90;;;;;;5108210;28;20070;-79
2020/12/09 01:18:09;;;;;;;50.13;32.17;;;5.30;82.90;;;;;;5082672;28;20047;-78
2020/12/09 01:20:35;;;;;;;49.80;32.70;;;5.30;82.90;;;;;;5095388;28;20032;-79
2020/12/09 01:23:01;;;;;;;46.57;30.83;;;5.40;83.00;;;;;;5111379;28;20027;-79
2020/12/09 01:25:27;;;;;;;52.20;32.10;;;5.40;83.00;;;;;;5110632;28;20056;-79
2020/12/09 01:27:55;;;;;;;50.40;32.60;;;5.40;83.10;;;;;;5085707;28;20123;-80
2020/12/09 01:30:21;;;;;;;51.00;31.07;;;5.50;83.50;;;;;;5090254;28;20035;-79
2020/12/09 01:32:47;;;;;;;51.43;32.50;;;5.50;83.50;;;;;;5092116;28;20060;-78
2020/12/09 01:35:13;;;;;;;52.37;33.63;;;5.60;83.30;;;;;;5104277;28;20498;-77
2020/12/09 01:37:39;;;;;;;53.70;33.27;;;5.60;83.00;;;;;;5097965;28;20398;-79
2020/12/09 01:40:04;;;;;;;50.00;32.50;;;5.60;83.20;;;;;;5093975;28;20499;-77
2020/12/09 01:42:30;;;;;;;52.83;33.70;;;5.70;83.10;;;;;;5109587;28;20074;-79
2020/12/09 01:44:55;;;;;;;48.93;32.17;;;5.60;82.60;;;;;;5108932;28;20463;-79
2020/12/09 01:47:21;;;;;;;48.20;31.60;;;5.60;82.70;;;;;;5072019;28;20092;-79
2020/12/09 01:49:47;;;;;;;48.77;31.70;;;5.60;82.80;;;;;;5098314;28;20031;-79
2020/12/09 01:52:15;;;;;;;46.80;31.17;;;5.50;82.40;;;;;;5091490;28;20024;-77
2020/12/09 01:54:40;;;;;;;49.17;32.17;;;5.50;82.70;;;;;;5108874;28;20479;-79
2020/12/09 01:57:08;;;;;;;51.40;31.50;;;5.50;82.70;;;;;;5110168;28;20032;-79
2020/12/09 01:59:35;;;;;;;50.60;30.73;;;5.40;82.70;;;;;;5108458;28;20127;-79
2020/12/09 02:02:01;;;;;;;47.67;30.30;;;5.40;83.10;;;;;;5109861;28;20045;-79
2020/12/09 02:04:28;;;;;;;45.33;30.63;;;5.40;83.30;;;;;;5092201;28;20080;-79
2020/12/09 02:06:54;;;;;;;49.23;30.70;;;5.40;83.20;;;;;;5109303;28;20038;-79
2020/12/09 02:09:21;;;;;;;49.60;31.03;;;5.40;83.40;;;;;;5110778;28;20031;-80
2020/12/09 02:11:47;;;;;;;45.63;30.07;;;5.40;83.30;;;;;;5092650;28;20138;-77
2020/12/09 02:14:13;;;;;;;45.17;30.10;;;5.30;83.10;;;;;;5090733;28;20114;-77
2020/12/09 02:16:39;;;;;;;48.50;30.73;;;5.20;83.20;;;;;;5108155;28;20053;-80
2020/12/09 02:19:04;;;;;;;48.27;29.60;;;5.20;83.40;;;;;;5109472;28;20466;-79
2020/12/09 02:21:34;;;;;;;49.23;29.47;;;5.10;83.60;;;;;;5108231;28;20103;-79
2020/12/09 02:24:00;;;;;;;45.47;28.57;;;5.20;83.90;;;;;;5109019;28;20023;-78
2020/12/09 02:26:27;;;;;;;42.40;27.70;;;5.10;83.70;;;;;;5109145;28;20122;-79
2020/12/09 02:28:53;;;;;;;45.80;29.17;;;5.10;83.70;;;;;;5075745;28;20538;-79
2020/12/09 02:31:18;;;;;;;46.20;29.43;;;5.00;83.80;;;;;;5093160;28;20118;-79
2020/12/09 02:33:44;;;;;;;48.80;30.77;;;4.90;83.80;;;;;;5078050;28;20063;-79
2020/12/09 02:36:09;;;;;;;48.23;30.53;;;4.80;83.80;;;;;;5113101;28;20107;-79
2020/12/09 02:38:35;;;;;;;46.10;29.47;;;4.70;84.00;;;;;;5091492;28;20196;-78
2020/12/09 02:41:01;;;;;;;56.87;33.93;;;4.60;84.10;;;;;;5092407;28;20387;-80
2020/12/09 02:43:26;;;;;;;63.10;37.27;;;4.50;84.20;;;;;;5075801;28;20035;-78
2020/12/09 02:45:52;;;;;;;70.20;39.77;;;4.40;84.70;;;;;;5111800;28;20035;-79
2020/12/09 02:48:18;;;;;;;78.13;40.67;;;4.40;84.50;;;;;;5093750;28;20035;-77
2020/12/09 02:50:43;;;;;;;78.30;39.13;;;4.30;84.60;;;;;;5112917;28;20031;-79
2020/12/09 02:53:09;;;;;;;70.83;35.80;;;4.40;85.00;;;;;;5092665;28;20081;-79
2020/12/09 02:55:34;;;;;;;72.47;34.27;;;4.50;85.00;;;;;;5104049;28;20027;-80
2020/12/09 02:58:00;;;;;;;69.47;32.73;;;4.40;84.60;;;;;;5091584;28;20040;-78
2020/12/09 03:00:26;;;;;;;59.30;32.30;;;4.40;84.70;;;;;;5112508;28;20059;-80
2020/12/09 03:02:52;;;;;;;65.87;31.67;;;4.40;84.60;;;;;;5114952;28;20044;-79
2020/12/09 03:05:18;;;;;;;67.30;33.20;;;4.40;84.80;;;;;;5095470;28;20055;-77
2020/12/09 03:07:43;;;;;;;73.87;36.20;;;4.40;84.60;;;;;;5112967;28;20161;-79
2020/12/09 03:10:09;;;;;;;66.07;35.00;;;4.40;84.70;;;;;;5113158;28;20471;-78
2020/12/09 03:12:35;;;;;;;62.10;33.13;;;4.50;84.70;;;;;;5112624;28;20069;-79
2020/12/09 03:15:00;;;;;;;90.20;34.53;;;4.40;84.50;;;;;;5111872;28;20352;-79
2020/12/09 03:17:26;;;;;;;96.97;33.67;;;4.50;84.20;;;;;;5112365;28;20038;-80
2020/12/09 03:19:52;;;;;;;61.20;30.77;;;4.30;83.70;;;;;;5112024;28;20076;-79
2020/12/09 03:22:18;;;;;;;57.63;29.47;;;4.30;84.10;;;;;;5113071;28;20032;-77
2020/12/09 03:24:43;;;;;;;52.43;28.13;;;4.10;84.00;;;;;;5112146;28;20039;-80
2020/12/09 03:27:09;;;;;;;62.27;29.17;;;4.10;84.30;;;;;;5112914;28;20112;-80
2020/12/09 03:29:35;;;;;;;110.80;31.13;;;4.00;83.40;;;;;;5111000;28;20455;-80
2020/12/09 03:32:00;;;;;;;231.00;34.47;;;3.90;83.00;;;;;;5086700;28;20028;-80
2020/12/09 03:34:26;;;;;;;60.43;28.60;;;3.70;82.50;;;;;;5101577;28;20118;-80
2020/12/09 03:36:52;;;;;;;85.63;30.07;;;3.40;82.00;;;;;;5079031;28;20475;-80
2020/12/09 03:39:17;;;;;;;54.73;28.03;;;3.30;82.80;;;;;;5107781;28;20023;-78
2020/12/09 03:41:43;;;;;;;59.83;26.93;;;3.10;82.60;;;;;;5075732;28;20510;-80
2020/12/09 03:44:08;;;;;;;135.50;31.63;;;3.00;82.80;;;;;;5101396;28;20039;-79
2020/12/09 03:46:34;;;;;;;68.80;29.70;;;2.90;82.80;;;;;;5095825;28;20471;-80
2020/12/09 03:49:00;;;;;;;178.97;34.23;;;2.80;82.40;;;;;;5112116;28;20055;-80
2020/12/09 03:51:25;;;;;;;64.20;29.00;;;2.50;82.30;;;;;;5113062;28;20114;-80
2020/12/09 03:53:51;;;;;;;61.03;30.23;;;2.20;82.40;;;;;;5110712;28;20035;-80
2020/12/09 03:56:17;;;;;;;51.63;29.17;;;2.20;83.80;;;;;;5095829;28;20032;-80
2020/12/09 03:58:42;;;;;;;59.63;28.00;;;2.40;84.60;;;;;;5081274;28;20134;-80
2020/12/09 04:01:08;;;;;;;51.77;29.33;;;2.50;85.00;;;;;;5112543;28;20047;-80
2020/12/09 04:03:34;;;;;;;53.73;27.90;;;2.60;84.70;;;;;;5111039;28;20043;-81
2020/12/09 04:05:59;;;;;;;65.50;29.60;;;2.70;84.90;;;;;;5095613;28;20096;-81
2020/12/09 04:08:25;;;;;;;54.40;29.43;;;2.70;84.60;;;;;;5093346;28;20043;-79
2020/12/09 04:10:51;;;;;;;64.57;29.90;;;2.70;84.80;;;;;;5110979;28;20088;-80
2020/12/09 04:13:16;;;;;;;56.07;29.13;;;2.80;85.00;;;;;;5113596;28;20153;-80
2020/12/09 04:15:42;;;;;;;96.43;31.57;;;2.80;84.90;;;;;;5076744;28;20031;-80
2020/12/09 04:18:08;;;;;;;83.47;30.63;;;2.90;85.30;;;;;;5109341;28;20043;-80
2020/12/09 04:20:33;;;;;;;96.47;33.57;;;2.90;85.00;;;;;;5093814;28;20032;-81
2020/12/09 04:22:59;;;;;;;77.40;31.80;;;2.90;85.00;;;;;;5112042;28;20047;-80
2020/12/09 04:25:25;;;;;;;63.23;29.47;;;2.80;84.60;;;;;;5110665;28;20102;-80
2020/12/09 04:27:50;;;;;;;67.93;31.23;;;2.70;85.20;;;;;;5109737;28;20501;-80
2020/12/09 04:30:16;;;;;;;68.47;30.87;;;2.80;85.20;;;;;;5113300;28;20024;-81
2020/12/09 04:32:42;;;;;;;65.27;30.33;;;2.80;85.20;;;;;;5110880;28;20031;-80
2020/12/09 04:35:08;;;;;;;52.17;28.17;;;2.90;85.40;;;;;;5111272;28;20036;-80
2020/12/09 04:37:33;;;;;;;61.47;29.73;;;2.90;85.20;;;;;;5110358;28;20390;-81
2020/12/09 04:39:59;;;;;;;52.70;27.43;;;3.00;85.50;;;;;;5112656;28;20046;-80
2020/12/09 04:42:27;;;;;;;66.47;29.23;;;3.10;85.60;;;;;;5092720;28;20115;-78
2020/12/09 04:44:53;;;;;;;48.53;27.63;;;3.20;85.70;;;;;;5081609;28;20028;-80
2020/12/09 04:47:25;;;;;;;51.87;29.00;;;3.10;85.00;;;;;;5095242;28;20376;-79
2020/12/09 04:50:04;;;;;;;88.67;30.00;;;3.10;85.30;;;;;;5111152;28;20119;-79
2020/12/09 04:53:01;;;;;;;68.33;30.17;;;3.10;85.10;;;;;;5090862;28;20035;-80
2020/12/09 04:55:31;;;;;;;73.27;31.00;;;3.00;85.30;;;;;;5109633;28;20039;-80
2020/12/09 04:58:05;;;;;;;51.53;28.50;;;2.90;84.80;;;;;;5108357;28;20023;-80
2020/12/09 05:00:31;;;;;;;77.63;31.43;;;2.90;85.30;;;;;;5111083;28;20047;-80
2020/12/09 05:03:15;;;;;;;74.53;31.27;;;2.90;85.30;;;;;;5110870;28;20020;-81
2020/12/09 05:05:41;;;;;;;78.63;31.73;;;2.90;85.40;;;;;;5110832;28;20165;-81
2020/12/09 05:08:17;;;;;;;86.23;33.20;;;2.80;85.00;;;;;;5110762;28;20069;-80
2020/12/09 05:10:48;;;;;;;56.60;31.77;;;2.80;85.00;;;;;;5112144;28;20273;-80
2020/12/09 05:13:26;;;;;;;74.10;33.60;;;2.80;85.30;;;;;;5110492;28;20027;-81
2020/12/09 05:15:56;;;;;;;73.60;34.97;;;2.90;85.80;;;;;;5118591;28;20046;-80
2020/12/09 05:18:54;;;;;;;53.20;31.80;;;3.00;85.90;;;;;;5122417;28;20503;-79
2020/12/09 05:21:23;;;;;;;56.13;30.93;;;3.00;86.00;;;;;;5121240;28;20040;-81
2020/12/09 05:23:51;;;;;;;54.17;31.87;;;3.10;86.30;;;;;;5116363;28;20027;-80
2020/12/09 05:26:22;;;;;;;51.73;30.47;;;3.30;86.30;;;;;;5110004;28;20031;-79
2020/12/09 05:28:47;;;;;;;76.53;32.70;;;3.30;86.30;;;;;;5110564;28;20027;-80
2020/12/09 05:31:23;;;;;;;57.63;31.20;;;3.40;86.00;;;;;;5111010;28;20371;-78
2020/12/09 05:33:49;;;;;;;51.37;30.93;;;3.30;86.00;;;;;;5110074;28;20024;-79
2020/12/09 05:36:14;;;;;;;57.93;30.90;;;3.40;86.20;;;;;;5092861;28;20454;-79
2020/12/09 05:38:40;;;;;;;53.57;31.07;;;3.40;86.10;;;;;;5107749;28;20035;-79
2020/12/09 05:41:11;;;;;;;52.70;30.47;;;3.40;85.90;;;;;;5112057;28;20030;-79
2020/12/09 05:43:42;;;;;;;50.60;30.57;;;3.50;86.00;;;;;;5109324;28;20020;-80
2020/12/09 05:46:11;;;;;;;48.13;29.93;;;3.50;85.90;;;;;;5109094;28;20467;-79
2020/12/09 05:48:37;;;;;;;55.77;31.33;;;3.50;85.60;;;;;;5107247;28;20042;-79
2020/12/09 05:51:03;;;;;;;52.77;30.07;;;3.50;85.50;;;;;;5108921;28;20704;-79
2020/12/09 05:53:34;;;;;;;48.10;29.70;;;3.50;85.40;;;;;;5109963;28;20076;-77
2020/12/09 05:56:18;;;;;;;49.50;30.20;;;3.50;85.50;;;;;;5107123;28;20023;-79
2020/12/09 05:58:47;;;;;;;50.83;29.90;;;3.50;85.40;;;;;;5109523;28;20668;-79
2020/12/09 06:01:20;;;;;;;45.73;28.37;;;3.50;85.20;;;;;;5129584;27;20126;-80
2020/12/09 06:03:50;;;;;;;48.83;31.15;;;3.40;85.00;;;;;;5110887;27;20088;-80
2020/12/09 06:06:23;;;;;;;48.03;29.93;;;3.40;85.30;;;;;;5113972;27;20378;-80
2020/12/09 06:08:48;;;;;;;;;;;3.50;85.20;;;;;;5112009;28;20060;-80
2020/12/09 06:11:16;;;;;;;49.07;29.20;;;3.40;84.80;;;;;;5115702;28;20065;-80
2020/12/09 06:13:42;;;;;;;52.70;30.13;;;3.30;84.90;;;;;;5113660;28;20509;-79
2020/12/09 06:16:09;;;;;;;49.83;29.47;;;3.30;84.80;;;;;;5115014;27;20378;-80
2020/12/09 06:18:38;;;;;;;51.27;29.27;;;3.30;85.00;;;;;;5107554;28;20039;-81
2020/12/09 06:21:04;;;;;;;51.13;29.90;;;3.20;85.60;;;;;;5127682;28;20613;-80
2020/12/09 06:23:30;;;;;;;54.07;31.17;;;3.30;85.60;;;;;;5147526;28;20035;-77
2020/12/09 06:25:58;;;;;;;53.13;30.93;;;3.20;85.60;;;;;;5148394;28;20114;-79
2020/12/09 06:28:28;;;;;;;57.47;32.07;;;3.20;85.60;;;;;;5105372;28;20543;-81
2020/12/09 06:30:55;;;;;;;60.50;33.33;;;3.10;85.60;;;;;;5131661;28;20019;-81
2020/12/09 06:33:28;;;;;;;50.87;29.63;;;3.10;85.90;;;;;;5114383;28;20081;-81
2020/12/09 06:36:20;;;;;;;52.97;30.63;;;3.00;85.50;;;;;;5131211;28;20019;-81
2020/12/09 06:39:18;;;;;;;55.63;31.57;;;3.00;85.80;;;;;;5112008;28;20059;-78
2020/12/09 06:41:46;;;;;;;59.00;31.70;;;2.80;85.70;;;;;;5078870;28;20043;-80
2020/12/09 06:44:16;;;;;;;57.60;32.07;;;2.80;86.00;;;;;;5129527;28;20453;-80
2020/12/09 06:46:42;;;;;;;56.10;32.47;;;2.80;86.00;;;;;;5110310;28;20026;-79
2020/12/09 06:49:33;;;;;;;57.83;31.40;;;2.70;86.10;;;;;;5110316;28;20027;-80
2020/12/09 06:52:10;;;;;;;66.53;34.97;;;2.70;86.40;;;;;;5112473;28;20038;-80
2020/12/09 06:54:43;;;;;;;63.53;33.73;;;2.70;86.60;;;;;;5129419;28;20026;-80
2020/12/09 06:57:29;;;;;;;60.67;33.10;;;2.70;86.50;;;;;;5111508;28;20031;-79
2020/12/09 07:00:14;;;;;;;61.03;32.80;;;2.70;86.60;;;;;;5096179;28;20122;-78
2020/12/09 07:02:43;;;;;;;59.53;31.70;;;2.70;86.50;;;;;;5128773;28;20034;-79
2020/12/09 07:05:09;;;;;;;65.97;33.30;;;2.70;86.50;;;;;;5092060;28;20028;-78
2020/12/09 07:07:37;;;;;;;61.73;32.93;;;2.70;86.60;;;;;;5127240;28;20027;-78
2020/12/09 07:10:25;;;;;;;57.67;32.63;;;2.70;87.10;;;;;;5130340;28;20027;-79
2020/12/09 07:13:03;;;;;;;58.87;32.23;;;2.70;86.90;;;;;;5125713;27;20031;-80
2020/12/09 07:15:30;;;;;;;65.80;34.80;;;2.70;86.90;;;;;;5113830;27;20435;-79
2020/12/09 07:17:56;;;;;;;66.30;33.97;;;2.80;87.10;;;;;;5117606;27;20038;-79
2020/12/09 07:20:21;;;;;;;66.77;34.73;;;2.80;87.40;;;;;;5116319;27;20027;-79
2020/12/09 07:22:47;;;;;;;66.33;34.63;;;3.00;87.80;;;;;;5116832;27;20394;-79
2020/12/09 07:25:13;;;;;;;64.40;33.90;;;3.20;87.60;;;;;;5115849;27;20035;-79
2020/12/09 07:27:39;;;;;;;62.60;33.70;;;3.40;87.50;;;;;;5114781;27;20027;-80
2020/12/09 07:30:09;;;;;;;69.53;35.50;;;3.60;87.50;;;;;;5134687;27;20043;-79
2020/12/09 07:32:36;;;;;;;69.23;35.90;;;3.60;86.90;;;;;;5094661;28;20020;-78
2020/12/09 07:35:08;;;;;;;66.40;34.83;;;3.70;86.90;;;;;;5107422;27;20130;-79
2020/12/09 07:37:37;;;;;;;68.63;35.10;;;3.80;87.00;;;;;;5130778;27;20034;-78
2020/12/09 07:40:29;;;;;;;62.77;33.23;;;4.00;86.80;;;;;;5134842;27;20031;-79
2020/12/09 07:43:00;;;;;;;61.83;34.50;;;4.10;86.60;;;;;;5114855;27;20503;-79
2020/12/09 07:45:26;;;;;;;62.60;34.37;;;4.10;85.80;;;;;;5127817;27;20080;-79
2020/12/09 07:47:59;;;;;;;65.03;36.27;;;4.10;86.10;;;;;;5112176;27;20028;-80
2020/12/09 07:50:24;;;;;;;68.63;35.70;;;4.00;85.20;;;;;;5113706;27;20580;-80
2020/12/09 07:52:50;;;;;;;70.20;36.70;;;4.00;85.50;;;;;;5114344;27;20114;-79
2020/12/09 07:55:17;;;;;;;64.20;35.17;;;4.10;85.90;;;;;;5114712;27;20019;-78
2020/12/09 07:57:44;;;;;;;65.83;36.93;;;4.20;85.30;;;;;;5113844;27;20514;-80
2020/12/09 08:00:12;;;;;;;69.53;39.40;;;4.10;84.80;;;;;;5107813;28;20495;-81
2020/12/09 08:02:39;;;;;;;65.77;38.70;;;4.10;84.50;;;;;;5106207;28;20032;-80
2020/12/09 08:05:09;;;;;;;72.40;39.50;;;4.00;84.00;;;;;;5093258;28;20027;-80
2020/12/09 08:07:50;;;;;;;71.60;41.00;;;4.10;84.10;;;;;;5109254;28;20028;-79
2020/12/09 08:10:27;;;;;;;65.83;37.97;;;4.10;84.30;;;;;;5109616;28;20027;-81
2020/12/09 08:13:07;;;;;;;70.03;40.17;;;4.20;84.10;;;;;;5109899;28;20651;-80
2020/12/09 08:15:35;;;;;;;66.63;38.87;;;4.20;83.80;;;;;;5110532;28;20034;-78
2020/12/09 08:18:01;;;;;;;67.20;38.33;;;4.30;84.00;;;;;;5109106;28;20035;-80
2020/12/09 08:20:27;;;;;;;67.47;39.70;;;4.30;83.40;;;;;;5111625;28;20027;-81
2020/12/09 08:23:01;;;;;;;68.67;40.30;;;4.20;83.30;;;;;;5109071;28;20494;-80
2020/12/09 08:25:28;;;;;;;;;;;4.20;83.50;;;;;;5088389;28;20027;-79
2020/12/09 08:27:55;;;;;;;65.90;37.83;;;4.30;83.80;;;;;;5106794;28;20128;-78
2020/12/09 08:30:27;;;;;;;72.30;40.27;;;4.30;83.20;;;;;;5110445;28;20031;-80
2020/12/09 08:32:53;;;;;;;65.83;37.80;;;4.40;83.70;;;;;;5071050;28;20036;-79
2020/12/09 08:35:19;;;;;;;65.10;38.73;;;4.50;83.40;;;;;;5106197;28;20142;-79
2020/12/09 08:37:44;;;;;;;68.97;39.97;;;4.50;83.20;;;;;;5108034;28;20139;-78
2020/12/09 08:40:10;;;;;;;66.67;38.43;;;4.60;83.20;;;;;;5094608;28;20053;-79
2020/12/09 08:42:36;;;;;;;64.27;39.40;;;4.60;83.10;;;;;;5093889;28;20103;-79
2020/12/09 08:45:02;;;;;;;65.93;39.80;;;4.70;82.90;;;;;;5111628;28;20019;-80
2020/12/09 08:47:27;;;;;;;65.20;40.17;;;4.60;82.50;;;;;;5076892;28;20040;-80
2020/12/09 08:49:53;;;;;;;64.20;39.80;;;4.60;82.30;;;;;;5104658;28;20035;-81
2020/12/09 08:52:18;;;;;;;66.93;39.97;;;4.50;82.40;;;;;;5091159;28;20063;-81
2020/12/09 08:54:44;;;;;;;69.57;41.23;;;4.40;81.40;;;;;;5097211;28;20043;-81
2020/12/09 08:57:10;;;;;;;69.17;41.10;;;4.30;81.50;;;;;;5088419;28;20395;-78
2020/12/09 08:59:35;;;;;;;73.07;42.43;;;4.40;82.40;;;;;;5103236;27;20028;-78
2020/12/09 09:02:01;;;;;;;65.43;41.07;;;4.30;82.20;;;;;;5093931;27;20419;-79
2020/12/09 09:04:35;;;;;;;69.07;41.73;;;4.30;81.60;;;;;;5094825;27;20023;-80
2020/12/09 09:07:00;;;;;;;67.60;41.40;;;4.20;81.10;;;;;;5095218;27;20173;-81
2020/12/09 09:09:26;;;;;;;68.23;39.93;;;4.10;79.90;;;;;;5091836;28;20126;-80
2020/12/09 09:11:52;;;;;;;61.37;37.70;;;4.10;81.00;;;;;;5075976;28;20380;-77
2020/12/09 09:14:17;;;;;;;66.37;39.70;;;4.10;81.70;;;;;;5077062;27;20039;-80
2020/12/09 09:16:43;;;;;;;70.43;40.03;;;4.20;82.30;;;;;;5112749;27;20039;-81
2020/12/09 09:19:08;;;;;;;63.83;38.33;;;4.20;81.70;;;;;;5111680;27;20031;-80
2020/12/09 09:21:34;;;;;;;64.17;38.87;;;4.30;82.20;;;;;;5113469;27;20039;-79
2020/12/09 09:24:00;;;;;;;61.37;37.47;;;4.30;81.90;;;;;;5096218;27;20367;-79
2020/12/09 09:26:27;;;;;;;65.10;39.30;;;4.30;81.80;;;;;;5112411;28;20131;-80
2020/12/09 09:28:52;;;;;;;63.43;37.80;;;4.30;81.70;;;;;;5106004;27;20035;-79
2020/12/09 09:31:18;;;;;;;61.13;37.17;;;4.30;81.50;;;;;;5114575;27;20027;-81
2020/12/09 09:33:44;;;;;;;66.50;37.47;;;4.30;81.70;;;;;;5111600;27;20395;-80
2020/12/09 09:36:09;;;;;;;59.93;36.17;;;4.30;80.90;;;;;;5113960;27;20031;-81
2020/12/09 09:38:35;;;;;;;60.00;37.87;;;4.30;81.30;;;;;;5112621;27;20039;-76
2020/12/09 09:41:01;;;;;;;58.60;36.07;;;4.40;81.50;;;;;;5113595;27;20428;-78
2020/12/09 09:43:26;;;;;;;64.63;38.33;;;4.50;81.80;;;;;;5094422;27;20027;-79
2020/12/09 09:45:52;;;;;;;62.67;36.20;;;4.60;81.80;;;;;;5076066;28;20028;-79
2020/12/09 09:48:17;;;;;;;58.50;34.80;;;4.60;81.30;;;;;;5111376;28;20450;-79
2020/12/09 09:50:43;;;;;;;58.33;35.03;;;4.50;81.10;;;;;;5094355;27;20502;-80
2020/12/09 09:53:09;;;;;;;58.30;34.57;;;4.60;81.60;;;;;;5114119;27;20115;-79
2020/12/09 09:55:36;;;;;;;61.13;38.30;;;4.70;81.70;;;;;;5113746;27;20498;-80
2020/12/09 09:58:02;;;;;;;59.70;37.83;;;4.70;79.80;;;;;;5113644;27;20089;-79
2020/12/09 10:00:27;;;;;;;64.47;38.37;;;4.40;77.30;;;;;;5130828;27;20568;-79
2020/12/09 10:02:53;;;;;;;61.67;37.43;;;4.10;78.00;;;;;;5112614;27;20383;-78
2020/12/09 10:05:19;;;;;;;62.93;38.33;;;4.00;78.90;;;;;;5112874;27;20034;-78
2020/12/09 10:07:44;;;;;;;65.27;38.13;;;4.00;79.20;;;;;;5113779;28;20035;-79
2020/12/09 10:10:10;;;;;;;64.17;36.73;;;3.80;78.10;;;;;;5094508;28;20155;-79
2020/12/09 10:12:36;;;;;;;66.20;39.33;;;3.70;78.80;;;;;;5130491;27;20463;-79
2020/12/09 10:15:02;;;;;;;67.33;38.73;;;3.60;78.80;;;;;;5111988;27;20474;-80
2020/12/09 10:17:27;;;;;;;70.87;40.23;;;3.60;79.40;;;;;;5113357;27;20467;-79
2020/12/09 10:19:53;;;;;;;63.20;36.90;;;3.60;79.40;;;;;;5075457;28;20462;-80
2020/12/09 10:22:19;;;;;;;65.33;35.87;;;3.70;80.40;;;;;;5112836;28;20031;-79
2020/12/09 10:24:44;;;;;;;63.87;36.27;;;3.90;81.20;;;;;;5079044;28;20035;-80
2020/12/09 10:27:10;;;;;;;66.13;37.60;;;4.00;80.50;;;;;;5075636;28;20364;-79
2020/12/09 10:29:36;;;;;;;64.23;36.40;;;4.10;80.50;;;;;;5102884;28;20346;-79
2020/12/09 10:32:01;;;;;;;62.47;35.47;;;4.20;80.00;;;;;;5112993;28;20668;-80
2020/12/09 10:34:27;;;;;;;63.80;37.67;;;4.40;80.50;;;;;;5112485;28;20382;-80
2020/12/09 10:36:53;;;;;;;61.73;35.17;;;4.40;79.10;;;;;;5110667;28;20105;-78
2020/12/09 10:39:21;;;;;;;58.30;33.23;;;4.60;79.90;;;;;;5111714;28;20471;-80
2020/12/09 10:41:48;;;;;;;59.13;34.40;;;4.70;79.70;;;;;;5112611;28;20456;-79
2020/12/09 10:44:13;;;;;;;54.40;32.63;;;4.80;79.60;;;;;;5111431;28;20489;-80
2020/12/09 10:46:40;;;;;;;50.47;30.40;;;4.90;78.80;;;;;;5112818;28;20027;-78
2020/12/09 10:49:07;;;;;;;63.23;35.97;;;5.00;79.50;;;;;;5115551;27;20028;-80
2020/12/09 10:51:33;;;;;;;53.20;32.27;;;5.20;79.20;;;;;;5115785;27;20034;-80
2020/12/09 10:53:59;;;;;;;55.70;32.97;;;5.30;79.60;;;;;;5095102;28;20395;-80
2020/12/09 10:56:26;;;;;;;63.27;37.33;;;5.50;79.80;;;;;;5107851;27;20070;-81
2020/12/09 10:58:52;;;;;;;55.20;33.80;;;5.50;78.30;;;;;;5134164;27;20471;-80
2020/12/09 11:01:22;;;;;;;61.10;37.37;;;5.50;77.70;;;;;;5135828;27;20051;-81
2020/12/09 11:03:48;;;;;;;53.57;34.03;;;5.30;74.50;;;;;;5098829;27;20031;-80
2020/12/09 11:06:14;;;;;;;59.07;37.83;;;5.00;75.70;;;;;;5115145;27;20402;-80
2020/12/09 11:08:40;;;;;;;64.23;39.37;;;5.10;76.70;;;;;;5114928;27;20039;-80
2020/12/09 11:11:06;;;;;;;62.53;38.27;;;4.80;74.80;;;;;;5116258;27;20027;-81
2020/12/09 11:13:32;;;;;;;63.60;39.27;;;4.60;75.60;;;;;;5098427;27;20371;-79
2020/12/09 11:15:58;;;;;;;66.83;40.07;;;4.50;76.20;;;;;;5134967;27;20038;-82
2020/12/09 11:18:24;;;;;;;62.33;37.67;;;4.40;76.80;;;;;;5133681;27;20043;-80
2020/12/09 11:20:50;;;;;;;65.97;38.17;;;4.30;76.70;;;;;;5124125;27;20114;-80
2020/12/09 11:23:15;;;;;;;65.37;39.87;;;4.20;76.80;;;;;;5098602;27;20130;-82
2020/12/09 11:25:41;;;;;;;63.37;38.10;;;4.10;77.40;;;;;;5101694;27;20540;-80
2020/12/09 11:28:06;;;;;;;62.60;37.57;;;4.00;77.50;;;;;;5125245;27;20129;-81
2020/12/09 11:30:32;;;;;;;59.73;37.23;;;4.00;77.40;;;;;;5129050;27;20091;-80
2020/12/09 11:32:59;;;;;;;69.60;40.47;;;4.00;77.70;;;;;;5143629;27;20035;-80
2020/12/09 11:35:25;;;;;;;63.90;38.50;;;4.00;78.00;;;;;;5138002;27;20755;-79
2020/12/09 11:37:51;;;;;;;66.90;40.10;;;4.20;79.00;;;;;;5132992;27;20042;-79
2020/12/09 11:40:18;;;;;;;63.37;36.97;;;4.30;77.90;;;;;;5116095;27;20038;-79
2020/12/09 11:42:43;;;;;;;62.13;37.13;;;4.40;78.80;;;;;;5132535;27;20037;-78
2020/12/09 11:45:09;;;;;;;56.33;34.93;;;4.60;79.00;;;;;;5130384;27;20386;-79
2020/12/09 11:47:35;;;;;;;60.43;35.53;;;4.80;78.90;;;;;;5113101;27;20549;-80
2020/12/09 11:50:03;;;;;;;61.17;38.13;;;5.10;79.00;;;;;;5111618;27;20038;-80
2020/12/09 11:52:29;;;;;;;61.40;37.37;;;5.40;78.80;;;;;;5133388;27;20027;-79
2020/12/09 11:54:54;;;;;;;57.27;35.50;;;5.60;77.70;;;;;;5111397;27;20106;-79
2020/12/09 11:57:20;;;;;;;64.23;40.20;;;5.50;75.60;;;;;;5116058;27;20031;-80
2020/12/09 11:59:46;;;;;;;63.00;38.53;;;5.40;76.60;;;;;;5095978;27;20023;-77
2020/12/09 12:02:11;;;;;;;66.57;41.47;;;5.30;75.90;;;;;;5097212;27;20031;-79
2020/12/09 12:04:37;;;;;;;70.63;43.97;;;5.10;75.60;;;;;;5116015;27;20514;-80
2020/12/09 12:07:03;;;;;;;70.73;41.20;;;5.10;75.70;;;;;;5096765;27;20031;-79
2020/12/09 12:09:30;;;;;;;74.80;44.07;;;5.00;76.50;;;;;;5131242;27;20031;-78
2020/12/09 12:11:56;;;;;;;80.00;47.80;;;4.80;75.80;;;;;;5114339;27;20027;-79
2020/12/09 12:14:21;;;;;;;78.63;46.20;;;4.70;75.30;;;;;;5133442;27;20370;-78
2020/12/09 12:16:47;;;;;;;74.33;44.83;;;4.40;75.90;;;;;;5092239;27;20444;-77
2020/12/09 12:19:16;;;;;;;76.50;45.07;;;4.30;76.30;;;;;;5114478;27;20455;-79
2020/12/09 12:21:42;;;;;;;75.30;44.23;;;4.20;76.90;;;;;;5098842;27;20373;-79
2020/12/09 12:24:08;;;;;;;64.23;38.97;;;4.20;77.50;;;;;;5097395;27;20523;-79
2020/12/09 12:26:34;;;;;;;62.27;37.43;;;4.20;78.30;;;;;;5133447;27;20031;-80
2020/12/09 12:29:00;;;;;;;59.50;36.67;;;4.50;79.10;;;;;;5114502;27;20036;-80
2020/12/09 12:31:25;;;;;;;60.47;35.80;;;4.60;78.30;;;;;;5081649;27;20103;-80
2020/12/09 12:33:51;;;;;;;54.10;33.60;;;4.60;77.80;;;;;;5114537;27;20508;-80
2020/12/09 12:36:20;;;;;;;57.20;36.43;;;4.60;77.00;;;;;;5066412;27;20036;-79
2020/12/09 12:38:46;;;;;;;59.27;36.50;;;4.50;77.10;;;;;;5114053;27;20031;-78